Madison, SD

6:08 AM CST on November 17, 2019 (GMT -0600)
Madison Municipal

Weather History for KMDS - September, 2019

Change the Weather History Date:

Wednesday, September 18, 2019

  Actual Average Record
Temperature  
Mean Temperature 67 °F -  
Max Temperature 75 °F 73 °F 87 °F (2013)
Min Temperature 59 °F 48 °F 33 °F (2012)
Cooling Degree Days 2    
Growing Degree Days 17 (Base 50)    
Moisture  
Dew Point 63 °F    
Average Humidity 84    
Maximum Humidity 100    
Minimum Humidity 61    
Precipitation  
Precipitation 0.00 in - - ()
Sea Level Pressure  
Sea Level Pressure 29.89 in    
Wind  
Wind Speed 12 mph ()    
Max Wind Speed 22 mph    
Max Gust Speed 34 mph    
Visibility 10.0 miles    
Events Thunderstorm    
Averages and records for this station are not official NWS values.
T = Trace of Precipitation, MM = Missing Value Source: Averaged Metar Reports

Daily Weather History Graph

Daily Weather History Graph

Search for Another Location

Airport or City:

Astronomy

Sep. 18, 2019 Rise Set
Actual Time 7:10 AM CDT 7:33 PM CDT
Civil Twilight 6:41 AM CDT 8:02 PM CDT
Nautical Twilight 6:07 AM CDT 8:36 PM CDT
Astronomical Twilight 5:32 AM CDT 9:11 PM CDT
Moon 9:59 PM CDT (9/18) 11:23 AM CDT (9/18)
Length of Visible Light 13h 20m
Length of Day
12h 22m
Waning Gibbous, 82% of the Moon is Illuminated
Sep 18
Waning Gibbous
Sep 21
Last Quarter
Sep 28
New
Oct 5
First Quarter
Oct 13
Full

Hourly Weather History & Observations

Time (CDT) Temp. Dew Point Humidity Pressure Visibility Wind Dir Wind Speed Gust Speed Precip Events Conditions
12:15 AM 75.2 °F 68.0 °F 78% 29.78 in 10.0 mi South 18.4 mph 26.5 mph N/A   Clear
12:20 AM 75.2 °F 68.0 °F 78% 29.78 in 10.0 mi South 19.6 mph 27.6 mph N/A   Clear
12:35 AM 75.2 °F 69.8 °F 83% 29.78 in 10.0 mi South 17.3 mph 29.9 mph N/A   Partly Cloudy
12:40 AM 75.2 °F 69.8 °F 83% 29.77 in 10.0 mi South 18.4 mph 26.5 mph N/A   Partly Cloudy
12:55 AM 75.2 °F 69.8 °F 83% 29.77 in 10.0 mi South 21.9 mph 29.9 mph N/A   Mostly Cloudy
1:00 AM 75.2 °F 69.8 °F 83% 29.77 in 10.0 mi South 20.7 mph 34.5 mph N/A   Mostly Cloudy
1:15 AM 73.4 °F 71.6 °F 94% 29.77 in 10.0 mi South 19.6 mph 25.3 mph N/A   Mostly Cloudy
1:35 AM 73.4 °F 71.6 °F 94% 29.78 in 10.0 mi South 19.6 mph 25.3 mph N/A Thunderstorm Partly Cloudy
1:55 AM 73.4 °F 71.6 °F 94% 29.78 in 10.0 mi SSW 19.6 mph 27.6 mph N/A   Clear
2:00 AM 73.4 °F 71.6 °F 94% 29.78 in 10.0 mi SSW 16.1 mph 27.6 mph N/A   Clear
2:15 AM 73.4 °F 71.6 °F 94% 29.78 in 10.0 mi South 16.1 mph 24.2 mph N/A   Scattered Clouds
2:35 AM 73.4 °F 71.6 °F 94% 29.77 in 10.0 mi SSW 17.3 mph 26.5 mph N/A   Clear
3:15 AM 73.4 °F 71.6 °F 94% 29.76 in 10.0 mi SSW 16.1 mph 25.3 mph N/A   Clear
3:20 AM 71.6 °F 71.6 °F 100% 29.76 in 10.0 mi SSW 17.3 mph 21.9 mph N/A   Clear
3:35 AM 71.6 °F 71.6 °F 100% 29.76 in 10.0 mi SSW 13.8 mph 23.0 mph N/A   Clear
4:00 AM 71.6 °F 71.6 °F 100% 29.75 in 10.0 mi SSW 15.0 mph 19.6 mph N/A   Clear
4:15 AM 71.6 °F 71.6 °F 100% 29.76 in 10.0 mi SSW 16.1 mph 21.9 mph N/A   Clear
4:20 AM 71.6 °F 71.6 °F 100% 29.76 in 10.0 mi SSW 17.3 mph 21.9 mph N/A   Clear
4:35 AM 71.6 °F 71.6 °F 100% 29.76 in 10.0 mi SSW 16.1 mph 20.7 mph N/A   Clear
4:55 AM 71.6 °F 71.6 °F 100% 29.76 in 10.0 mi SSW 13.8 mph 19.6 mph N/A   Clear
5:00 AM 69.8 °F 69.8 °F 100% 29.76 in 10.0 mi SSW 13.8 mph 19.6 mph N/A   Clear
5:15 AM 69.8 °F 69.8 °F 100% 29.77 in 10.0 mi SW 10.4 mph - N/A   Clear
5:20 AM 69.8 °F 69.8 °F 100% 29.77 in 10.0 mi SW 10.4 mph - N/A   Clear
5:35 AM 68.0 °F 68.0 °F 100% 29.78 in 10.0 mi SSW 9.2 mph - N/A   Clear
5:40 AM 68.0 °F 68.0 °F 100% 29.78 in 10.0 mi SW 5.8 mph - N/A   Clear
5:55 AM 66.2 °F 66.2 °F 100% 29.79 in 10.0 mi SSW 6.9 mph - N/A   Clear
6:00 AM 66.2 °F 66.2 °F 100% 29.80 in 10.0 mi SW 9.2 mph - N/A   Clear
6:15 AM 66.2 °F 66.2 °F 100% 29.80 in 10.0 mi SW 6.9 mph - N/A   Clear
6:35 AM 66.2 °F 66.2 °F 100% 29.82 in 10.0 mi West 11.5 mph - N/A   Clear
6:40 AM 66.2 °F 66.2 °F 100% 29.82 in 10.0 mi West 12.7 mph 17.3 mph N/A   Clear
6:55 AM 66.2 °F 64.4 °F 94% 29.83 in 10.0 mi WNW 11.5 mph - N/A   Clear
7:00 AM 66.2 °F 64.4 °F 94% 29.83 in 10.0 mi West 10.4 mph - N/A   Clear
7:15 AM 64.4 °F 62.6 °F 94% 29.84 in 10.0 mi WNW 11.5 mph - N/A   Clear
7:35 AM 62.6 °F 62.6 °F 100% 29.85 in 10.0 mi WNW 13.8 mph - N/A   Clear
7:40 AM 62.6 °F 60.8 °F 94% 29.86 in 10.0 mi WNW 12.7 mph - N/A   Clear
7:55 AM 62.6 °F 60.8 °F 94% 29.87 in 10.0 mi NW 10.4 mph - N/A   Clear
8:00 AM 62.6 °F 60.8 °F 94% 29.87 in 10.0 mi NW 9.2 mph - N/A   Clear
8:15 AM 62.6 °F 60.8 °F 94% 29.88 in 10.0 mi NW 10.4 mph - N/A   Clear
8:20 AM 62.6 °F 60.8 °F 94% 29.87 in 10.0 mi NW 12.7 mph - N/A   Clear
8:35 AM 62.6 °F 60.8 °F 94% 29.88 in 10.0 mi NW 9.2 mph - N/A   Clear
8:40 AM 62.6 °F 59.0 °F 88% 29.88 in 10.0 mi NW 9.2 mph - N/A   Clear
8:55 AM 64.4 °F 59.0 °F 83% 29.89 in 10.0 mi WNW 9.2 mph - N/A   Clear
9:00 AM 64.4 °F 57.2 °F 77% 29.89 in 10.0 mi NW 10.4 mph - N/A   Clear
9:15 AM 64.4 °F 59.0 °F 83% 29.90 in 10.0 mi WNW 16.1 mph 19.6 mph N/A   Clear
9:20 AM 64.4 °F 57.2 °F 77% 29.90 in 10.0 mi WNW 13.8 mph 19.6 mph N/A   Clear
9:35 AM 64.4 °F 57.2 °F 77% 29.90 in 10.0 mi WNW 15.0 mph - N/A   Clear
9:55 AM 64.4 °F 59.0 °F 83% 29.90 in 10.0 mi WNW 13.8 mph - N/A   Clear
10:00 AM 64.4 °F 57.2 °F 77% 29.90 in 10.0 mi WNW 13.8 mph - N/A   Clear
10:15 AM 66.2 °F 57.2 °F 73% 29.91 in 10.0 mi West 16.1 mph 20.7 mph N/A   Clear
10:20 AM 64.4 °F 57.2 °F 77% 29.92 in 10.0 mi WNW 15.0 mph 20.7 mph N/A   Clear
10:35 AM 66.2 °F 57.2 °F 73% 29.92 in 10.0 mi West 11.5 mph - N/A   Clear
10:40 AM 66.2 °F 57.2 °F 73% 29.92 in 10.0 mi West 10.4 mph - N/A   Clear
10:55 AM 66.2 °F 57.2 °F 73% 29.92 in 10.0 mi West 11.5 mph - N/A   Clear
11:00 AM 66.2 °F 57.2 °F 73% 29.92 in 10.0 mi West 8.1 mph - N/A   Clear
11:15 AM 66.2 °F 57.2 °F 73% 29.92 in 10.0 mi WNW 12.7 mph 17.3 mph N/A   Clear
11:20 AM 66.2 °F 59.0 °F 78% 29.93 in 10.0 mi West 12.7 mph 17.3 mph N/A   Clear
11:35 AM 66.2 °F 57.2 °F 73% 29.93 in 10.0 mi West 13.8 mph 19.6 mph N/A   Clear
11:40 AM 68.0 °F 57.2 °F 68% 29.93 in 10.0 mi West 8.1 mph 19.6 mph N/A   Clear
11:55 AM 68.0 °F 57.2 °F 68% 29.93 in 10.0 mi West 12.7 mph - N/A   Clear
12:15 PM 68.0 °F 59.0 °F 73% 29.94 in 10.0 mi West 11.5 mph 17.3 mph N/A   Clear
12:35 PM 68.0 °F 59.0 °F 73% 29.93 in 10.0 mi West 11.5 mph 18.4 mph N/A   Clear
12:40 PM 68.0 °F 59.0 °F 73% 29.94 in 10.0 mi WSW 13.8 mph 18.4 mph N/A   Clear
12:55 PM 68.0 °F 57.2 °F 68% 29.94 in 10.0 mi WSW 12.7 mph 18.4 mph N/A   Clear
1:00 PM 69.8 °F 59.0 °F 68% 29.94 in 10.0 mi West 10.4 mph - N/A   Clear
1:15 PM 69.8 °F 59.0 °F 68% 29.94 in 10.0 mi West 11.5 mph 17.3 mph N/A   Clear
1:20 PM 69.8 °F 57.2 °F 64% 29.94 in 10.0 mi WSW 13.8 mph 17.3 mph N/A   Clear
1:35 PM 71.6 °F 59.0 °F 64% 29.94 in 10.0 mi WSW 15.0 mph 18.4 mph N/A   Clear
1:40 PM 71.6 °F 59.0 °F 64% 29.94 in 10.0 mi WSW 15.0 mph - N/A   Clear
1:55 PM 71.6 °F 59.0 °F 64% 29.94 in 10.0 mi West 11.5 mph 16.1 mph N/A   Clear
2:00 PM 71.6 °F 59.0 °F 64% 29.94 in 10.0 mi West 13.8 mph - N/A   Clear
2:15 PM 71.6 °F 60.8 °F 69% 29.94 in 10.0 mi WSW 15.0 mph 18.4 mph N/A   Clear
2:20 PM 71.6 °F 59.0 °F 64% 29.94 in 10.0 mi West 15.0 mph 18.4 mph N/A   Clear
2:35 PM 73.4 °F 60.8 °F 65% 29.94 in 10.0 mi WSW 15.0 mph - N/A   Clear
2:55 PM 71.6 °F 59.0 °F 64% 29.94 in 10.0 mi WSW 12.7 mph 19.6 mph N/A   Clear
3:15 PM 73.4 °F 59.0 °F 61% 29.93 in 10.0 mi West 13.8 mph - N/A   Clear
3:35 PM 73.4 °F 59.0 °F 61% 29.93 in 10.0 mi West 13.8 mph 18.4 mph N/A   Clear
3:40 PM 73.4 °F 59.0 °F 61% 29.93 in 10.0 mi West 11.5 mph 21.9 mph N/A   Clear
3:55 PM 73.4 °F 60.8 °F 65% 29.93 in 10.0 mi WSW 11.5 mph - N/A   Clear
4:15 PM 73.4 °F 59.0 °F 61% 29.93 in 10.0 mi West 13.8 mph 19.6 mph N/A   Clear
4:35 PM 73.4 °F 59.0 °F 61% 29.93 in 10.0 mi West 13.8 mph 20.7 mph N/A   Clear
4:40 PM 73.4 °F 59.0 °F 61% 29.93 in 10.0 mi West 15.0 mph - N/A   Clear
4:55 PM 73.4 °F 60.8 °F 65% 29.93 in 10.0 mi West 11.5 mph - N/A   Clear
5:15 PM 73.4 °F 60.8 °F 65% 29.93 in 10.0 mi West 13.8 mph - N/A   Clear
5:20 PM 73.4 °F 60.8 °F 65% 29.93 in 10.0 mi West 13.8 mph - N/A   Clear
5:35 PM 73.4 °F 60.8 °F 65% 29.93 in 10.0 mi West 11.5 mph - N/A   Clear
5:40 PM 73.4 °F 60.8 °F 65% 29.93 in 10.0 mi West 10.4 mph 16.1 mph N/A   Clear
5:55 PM 73.4 °F 62.6 °F 69% 29.94 in 10.0 mi West 6.9 mph 16.1 mph N/A   Clear
6:15 PM 73.4 °F 60.8 °F 65% 29.94 in 10.0 mi West 8.1 mph - N/A   Clear
6:35 PM 71.6 °F 60.8 °F 69% 29.94 in 10.0 mi West 5.8 mph - N/A   Clear
6:40 PM 71.6 °F 62.6 °F 73% 29.94 in 10.0 mi West 4.6 mph - N/A   Clear
6:55 PM 71.6 °F 62.6 °F 73% 29.94 in 10.0 mi WSW 4.6 mph - N/A   Clear
7:15 PM 69.8 °F 62.6 °F 78% 29.95 in 10.0 mi WSW 4.6 mph - N/A   Clear
7:55 PM 68.0 °F 64.4 °F 88% 29.96 in 10.0 mi SW 4.6 mph - N/A   Clear
8:00 PM 68.0 °F 64.4 °F 88% 29.96 in 10.0 mi WSW 4.6 mph - N/A   Clear
8:15 PM 66.2 °F 64.4 °F 94% 29.96 in 10.0 mi WSW 5.8 mph - N/A   Clear
8:35 PM 66.2 °F 64.4 °F 94% 29.96 in 10.0 mi WSW 5.8 mph - N/A   Clear
8:40 PM 66.2 °F 64.4 °F 94% 29.96 in 10.0 mi SW 4.6 mph - N/A   Clear
8:55 PM 64.4 °F 64.4 °F 100% 29.97 in 10.0 mi SSW 3.5 mph - N/A   Clear
9:15 PM 64.4 °F 64.4 °F 100% 29.97 in 10.0 mi SSW 3.5 mph - N/A   Clear
9:20 PM 64.4 °F 64.4 °F 100% 29.97 in 10.0 mi SSW 3.5 mph - N/A   Clear
9:35 PM 62.6 °F 62.6 °F 100% 29.98 in 10.0 mi SSW 3.5 mph - N/A   Clear
9:40 PM 62.6 °F 62.6 °F 100% 29.98 in 10.0 mi SSW 3.5 mph - N/A   Clear
9:55 PM 62.6 °F 62.6 °F 100% 29.98 in 10.0 mi Calm Calm - N/A   Clear
10:15 PM 62.6 °F 62.6 °F 100% 29.98 in 10.0 mi Calm Calm - N/A   Clear
10:20 PM 62.6 °F 62.6 °F 100% 29.98 in 10.0 mi Calm Calm - N/A   Clear
10:35 PM 60.8 °F 60.8 °F 100% 29.98 in 10.0 mi NW 3.5 mph - N/A   Clear
10:40 PM 60.8 °F 60.8 °F 100% 29.98 in 10.0 mi NW 3.5 mph - N/A   Clear
10:55 PM 59.0 °F 59.0 °F 100% 29.98 in 10.0 mi Calm Calm - N/A   Clear
11:00 PM 59.0 °F 59.0 °F 100% 29.99 in 10.0 mi Calm Calm - N/A   Clear
11:15 PM 60.8 °F 60.8 °F 100% 29.99 in 10.0 mi Calm Calm - N/A   Clear
11:35 PM 60.8 °F 60.8 °F 100% 29.99 in 10.0 mi ESE 3.5 mph - N/A   Clear
11:55 PM 59.0 °F 59.0 °F 100% 30.00 in 10.0 mi South 6.9 mph - N/A   Clear